Ophir, CO

6:09 PM MST on November 24, 2014 (GMT -0700)
CAIC EAGLE, SAN JAUN COUNTY CO US CAIC | Change Station
CLOSE
Current Station
Personal Weather Station
Location: Telluride, CO
Elevation: 12851 ft
Nearby Weather Stations

Elev 12851 ft 37.88 °N, 107.74 °W | Updated 1 hour ago

Snow
Snow
-1 °F
Feels Like -27 °F
N
29
Wind Variable Wind from NNW
Gusts 63.0 mph

Today
High -- | Low -- °F
--% Chance of Precip.
Yesterday
High -- | Low -- °F
Precip. -- in
7:00 AM 4:54 PM
Waxing Crescent, 8% visible
Pressure 30.21 in
Visibility 10.0 miles
Clouds Scattered Clouds 2200 ft
Mostly Cloudy 3500 ft
Overcast 6500 ft
Windchill -27 °F
Dew Point -4 °F
Humidity 85%
Rainfall -999.00 in
Snow Depth Not available.
UV 0 out of 12
Pollen .10 out of 12
Air Quality Not available.
Flu Activity Not available.
METAR KTEX 250015Z AUTO 31006G15KT 10SM SCT022 BKN035 OVC065 M07/M13 A3021 RMK AO2 T10681135

More Conditions Fewer Conditions

Pressure 30.21 in
Visibility 10.0 miles
Clouds Scattered Clouds 2200 ft
Mostly Cloudy 3500 ft
Overcast 6500 ft
Windchill -27 °F
Dew Point -4 °F
Humidity 85%
Rainfall -999.00 in
Snow Depth Not available.
UV 0 out of 12
Pollen .10 out of 12
Air Quality Not available.
Flu Activity Not available.
METAR KTEX 250015Z AUTO 31006G15KT 10SM SCT022 BKN035 OVC065 M07/M13 A3021 RMK AO2 T10681135

More Conditions Fewer Conditions

10-Day Weather Forecast

Almanac

Astronomy

Nov. 24, 2014 Rise Set
Actual Time
Civil Twilight
Nautical Twilight
Astronomical Twilight
Moon
Length of Visible Light
Length of Day
Tomorrow will be .
, % of the Moon is Illuminated

Today's Extremes

State Highs State Lows

Community

WunderPhotos

Upload Photos

1,773,446 photos uploaded!

WunderBlogs® & News

Nearby

Air Quality

  Air Quality AQ Index Pollutant
Not available.

Snow Depth

Station Depth Elevation

Earthquake Activity

City Distance Mag. Time & Date
Minimum magnitude displayed is 2.5.

Coastal Water Temperatures

Place Temperature

Nearby Weather Stations